createdAt,value
2019-02-16T00:00:43.677Z,5.90
2019-02-16T00:03:14.581Z,5.25
2019-02-16T00:05:43.856Z,4.97
2019-02-16T00:08:13.138Z,4.60
2019-02-16T00:10:42.428Z,5.83
2019-02-16T00:13:12.036Z,5.20
2019-02-16T00:15:41.322Z,5.37
2019-02-16T00:18:10.600Z,4.95
2019-02-16T00:20:39.882Z,5.50
2019-02-16T00:23:09.156Z,5.20
2019-02-16T00:25:38.426Z,6.00
2019-02-16T00:28:07.718Z,4.72
2019-02-16T00:30:37.256Z,5.97
2019-02-16T00:33:06.534Z,6.17
2019-02-16T00:35:35.805Z,5.80
2019-02-16T00:38:05.080Z,5.47
2019-02-16T00:40:34.347Z,5.67
2019-02-16T00:43:03.633Z,4.90
2019-02-16T00:45:32.909Z,6.20
2019-02-16T00:48:02.462Z,5.00
2019-02-16T00:50:32.068Z,4.77
2019-02-16T00:53:01.373Z,6.70
2019-02-16T00:55:30.970Z,5.80
2019-02-16T00:58:00.575Z,5.42
2019-02-16T01:00:30.192Z,5.70
2019-02-16T01:02:59.482Z,6.00
2019-02-16T01:05:28.770Z,5.62
2019-02-16T01:07:58.044Z,5.50
2019-02-16T01:10:27.333Z,5.60
2019-02-16T01:12:56.597Z,6.07
2019-02-16T01:15:25.883Z,5.80
2019-02-16T01:17:55.160Z,5.62
2019-02-16T01:20:24.445Z,5.30
2019-02-16T01:22:53.723Z,5.10
2019-02-16T01:25:22.998Z,5.60
2019-02-16T01:27:53.357Z,5.50
2019-02-16T01:30:22.642Z,6.15
2019-02-16T01:32:51.921Z,5.67
2019-02-16T01:35:21.226Z,6.10
2019-02-16T01:37:50.479Z,6.10
2019-02-16T01:40:19.777Z,5.77
2019-02-16T01:42:49.111Z,5.43
2019-02-16T01:45:18.625Z,6.43
2019-02-16T01:47:47.897Z,6.07
2019-02-16T01:50:17.178Z,5.90
2019-02-16T01:52:46.453Z,5.80
2019-02-16T01:55:15.730Z,5.90
2019-02-16T01:57:45.006Z,5.10
2019-02-16T02:00:14.284Z,5.43
2019-02-16T02:02:43.562Z,6.30
2019-02-16T02:05:12.843Z,5.70
2019-02-16T02:07:42.282Z,5.23
2019-02-16T02:10:11.556Z,6.27
2019-02-16T02:12:41.137Z,6.28
2019-02-16T02:15:11.085Z,6.50
2019-02-16T02:17:40.352Z,6.23
2019-02-16T02:20:09.814Z,5.80
2019-02-16T02:22:39.362Z,6.60
2019-02-16T02:25:10.496Z,5.78
2019-02-16T02:27:39.766Z,5.70
2019-02-16T02:30:10.884Z,6.37
2019-02-16T02:32:40.205Z,6.80
2019-02-16T02:35:09.825Z,6.27
2019-02-16T02:37:39.369Z,6.85
2019-02-16T02:40:08.814Z,5.60
2019-02-16T02:42:39.405Z,7.03
2019-02-16T02:45:10.862Z,5.42
2019-02-16T02:47:40.211Z,6.03
2019-02-16T02:50:09.502Z,7.10
2019-02-16T02:52:38.786Z,6.75
2019-02-16T02:55:08.674Z,5.60
2019-02-16T02:57:37.949Z,6.70
2019-02-16T03:00:09.898Z,6.40
2019-02-16T03:02:39.401Z,6.83
2019-02-16T03:05:10.144Z,6.37
2019-02-16T03:07:39.406Z,7.20
2019-02-16T03:10:08.927Z,6.50
2019-02-16T03:12:38.210Z,6.40
2019-02-16T03:15:07.778Z,6.53
2019-02-16T03:17:37.056Z,6.03
2019-02-16T03:20:06.818Z,5.92
2019-02-16T03:23:07.945Z,6.33
2019-02-16T03:25:37.233Z,6.10
2019-02-16T03:28:24.742Z,6.92
2019-02-16T03:31:29.717Z,6.90
2019-02-16T03:34:37.222Z,5.83
2019-02-16T03:37:26.478Z,5.85
2019-02-16T03:39:55.768Z,7.17
2019-02-16T03:42:25.290Z,5.70
2019-02-16T03:44:54.907Z,6.70
2019-02-16T03:47:24.501Z,6.70
2019-02-16T03:49:53.803Z,7.40
2019-02-16T03:52:23.414Z,7.83
2019-02-16T03:54:53.019Z,6.30
2019-02-16T03:57:22.624Z,6.60
2019-02-16T03:59:51.977Z,6.33
2019-02-16T04:02:21.250Z,6.00
2019-02-16T04:04:50.586Z,6.10
2019-02-16T04:07:19.865Z,7.05
2019-02-16T04:09:49.141Z,6.00
2019-02-16T04:12:18.451Z,6.70
2019-02-16T04:14:47.714Z,6.20
2019-02-16T04:17:17.002Z,6.70
2019-02-16T04:19:47.563Z,6.85
2019-02-16T04:22:24.290Z,6.70
2019-02-16T04:24:48.146Z,7.03
2019-02-16T04:27:17.429Z,6.00
2019-02-16T04:29:46.701Z,7.20
2019-02-16T04:32:15.989Z,7.15
2019-02-16T04:34:45.266Z,7.22
2019-02-16T04:37:14.822Z,7.72
2019-02-16T04:39:44.097Z,6.25
2019-02-16T04:42:13.625Z,7.65
2019-02-16T04:44:42.936Z,6.15
2019-02-16T04:47:12.231Z,7.03
2019-02-16T04:49:41.514Z,6.95
2019-02-16T04:52:10.800Z,8.45
2019-02-16T04:54:40.456Z,7.15
2019-02-16T04:57:09.937Z,6.90
2019-02-16T04:59:39.207Z,7.25
2019-02-16T05:02:08.485Z,7.28
2019-02-16T05:04:38.056Z,6.47
2019-02-16T05:07:07.342Z,6.25
2019-02-16T05:09:36.871Z,6.50
2019-02-16T05:12:06.470Z,6.47
2019-02-16T05:14:35.755Z,6.70
2019-02-16T05:17:05.033Z,6.87
2019-02-16T05:19:34.310Z,6.90
2019-02-16T05:22:03.602Z,6.40
2019-02-16T05:24:32.886Z,6.75
2019-02-16T05:27:02.474Z,6.10
2019-02-16T05:29:32.077Z,6.28
2019-02-16T05:32:01.370Z,7.55
2019-02-16T05:34:30.655Z,6.45
2019-02-16T05:37:00.185Z,7.08
2019-02-16T05:39:29.798Z,6.12
2019-02-16T05:41:59.074Z,6.15
2019-02-16T05:44:28.346Z,6.03
2019-02-16T05:46:57.629Z,6.30
2019-02-16T05:49:26.936Z,7.65
2019-02-16T05:51:56.223Z,6.17
2019-02-16T05:54:25.599Z,6.05
2019-02-16T05:56:55.210Z,6.37
2019-02-16T05:59:24.489Z,6.62
2019-02-16T06:01:54.420Z,6.05
2019-02-16T06:04:24.237Z,5.92
2019-02-16T06:06:53.524Z,6.28
2019-02-16T06:09:23.045Z,6.30
2019-02-16T06:11:52.685Z,6.50
2019-02-16T06:14:21.942Z,7.15
2019-02-16T06:16:51.233Z,5.95
2019-02-16T06:19:20.506Z,6.95
2019-02-16T06:21:49.790Z,6.65
2019-02-16T06:24:19.065Z,6.37
2019-02-16T06:26:48.675Z,6.92
2019-02-16T06:29:18.276Z,5.87
2019-02-16T06:31:47.564Z,6.70
2019-02-16T06:34:18.202Z,7.40
2019-02-16T06:36:47.491Z,6.90
2019-02-16T06:39:16.765Z,6.70
2019-02-16T06:41:46.059Z,6.95
2019-02-16T06:44:15.335Z,7.15
2019-02-16T06:46:44.614Z,6.58
2019-02-16T06:49:14.212Z,7.00
2019-02-16T06:51:43.496Z,6.70
2019-02-16T06:54:12.855Z,7.90
2019-02-16T06:56:43.776Z,7.45
2019-02-16T06:59:13.072Z,7.58
2019-02-16T07:01:42.333Z,6.92
2019-02-16T07:04:11.610Z,5.90
2019-02-16T07:06:40.909Z,6.92
2019-02-16T07:09:10.241Z,6.45
2019-02-16T07:11:39.525Z,7.12
2019-02-16T07:14:08.806Z,6.87
2019-02-16T07:16:39.726Z,7.28
2019-02-16T07:19:10.637Z,6.75
2019-02-16T07:21:39.921Z,6.25
2019-02-16T07:24:09.432Z,6.80
2019-02-16T07:26:38.714Z,7.25
2019-02-16T07:29:08.002Z,6.22
2019-02-16T07:31:37.542Z,6.65
2019-02-16T07:34:06.830Z,6.95
2019-02-16T07:36:36.113Z,7.33
2019-02-16T07:39:07.754Z,6.80
2019-02-16T07:41:37.031Z,7.50
2019-02-16T07:44:24.161Z,7.50
2019-02-16T07:46:58.546Z,6.87
2019-02-16T07:49:38.716Z,6.58
2019-02-16T07:52:09.647Z,8.20
2019-02-16T07:54:49.790Z,6.47
2019-02-16T07:57:21.050Z,7.00
2019-02-16T08:00:01.095Z,6.65
2019-02-16T08:02:33.099Z,7.28
2019-02-16T08:05:06.929Z,6.40
2019-02-16T08:07:37.854Z,6.40
2019-02-16T08:10:21.029Z,5.70
2019-02-16T08:13:03.956Z,7.08
2019-02-16T08:15:40.641Z,6.55
2019-02-16T08:18:11.875Z,6.65
2019-02-16T08:20:42.789Z,6.03
2019-02-16T08:23:13.715Z,6.12
2019-02-16T08:26:01.265Z,5.62
2019-02-16T08:28:32.526Z,7.05
2019-02-16T08:31:03.433Z,5.75
2019-02-16T08:33:46.394Z,6.03
2019-02-16T08:36:20.011Z,6.45
2019-02-16T08:38:53.893Z,6.70
2019-02-16T08:41:24.813Z,7.00
2019-02-16T08:43:58.534Z,5.90
2019-02-16T08:46:35.722Z,6.83
2019-02-16T08:49:09.084Z,6.40
2019-02-16T08:51:45.950Z,6.40
2019-02-16T08:54:16.883Z,6.73
2019-02-16T08:57:04.572Z,6.27
2019-02-16T08:59:35.514Z,6.10
2019-02-16T09:02:06.433Z,6.60
2019-02-16T09:04:37.623Z,6.83
2019-02-16T09:07:08.516Z,6.53
2019-02-16T09:09:42.655Z,6.27
2019-02-16T09:12:19.581Z,6.60
2019-02-16T09:14:53.181Z,6.70
2019-02-16T09:17:24.097Z,7.20
2019-02-16T09:20:11.241Z,6.67
2019-02-16T09:22:57.190Z,6.60
2019-02-16T09:25:31.098Z,7.03
2019-02-16T09:28:07.696Z,7.10
2019-02-16T09:30:44.545Z,6.80
2019-02-16T09:33:15.472Z,7.33
2019-02-16T09:35:52.763Z,8.50
2019-02-16T09:38:30.050Z,7.50
2019-02-16T09:41:19.189Z,7.43
2019-02-16T09:44:08.772Z,7.13
2019-02-16T09:46:45.796Z,6.83
2019-02-16T09:49:19.654Z,6.90
2019-02-16T09:51:53.258Z,6.93
2019-02-16T09:54:36.333Z,6.40
2019-02-16T09:57:19.629Z,7.50
2019-02-16T09:59:50.571Z,7.03
2019-02-16T10:02:21.507Z,6.90
2019-02-16T10:04:52.435Z,7.53
2019-02-16T10:07:26.077Z,8.37
2019-02-16T10:09:57.302Z,7.93
2019-02-16T10:12:34.398Z,7.27
2019-02-16T10:15:21.878Z,6.93
2019-02-16T10:18:09.335Z,7.17
2019-02-16T10:20:49.257Z,8.03
2019-02-16T10:23:32.712Z,7.33
2019-02-16T10:26:09.316Z,8.17
2019-02-16T10:28:52.252Z,8.10
2019-02-16T10:31:26.081Z,7.27
2019-02-16T10:33:57.005Z,7.50
2019-02-16T10:36:37.108Z,7.70
2019-02-16T10:39:11.217Z,7.30
2019-02-16T10:41:42.125Z,8.60
2019-02-16T10:44:16.171Z,8.13
2019-02-16T10:46:47.089Z,7.70
2019-02-16T10:49:18.018Z,7.90
2019-02-16T10:52:00.876Z,8.37
2019-02-16T10:54:47.093Z,7.60
2019-02-16T10:57:27.034Z,8.37
2019-02-16T11:00:00.654Z,7.73
2019-02-16T11:02:34.482Z,8.27
2019-02-16T11:05:09.149Z,7.00
2019-02-16T11:07:49.213Z,7.67
2019-02-16T11:10:25.841Z,7.70
2019-02-16T11:12:56.762Z,8.37
2019-02-16T11:15:33.605Z,7.00
2019-02-16T11:18:04.517Z,8.87
2019-02-16T11:20:35.449Z,8.50
2019-02-16T11:23:06.722Z,8.90
2019-02-16T11:25:37.963Z,8.27
2019-02-16T11:28:11.633Z,7.93
2019-02-16T11:30:45.309Z,7.83
2019-02-16T11:33:16.519Z,7.90
2019-02-16T11:36:04.149Z,8.27
2019-02-16T11:38:35.065Z,7.40
2019-02-16T11:41:22.164Z,8.13
2019-02-16T11:43:53.081Z,8.00
2019-02-16T11:46:26.957Z,8.77
2019-02-16T11:49:10.042Z,8.60
2019-02-16T11:51:43.810Z,8.00
2019-02-16T11:54:23.588Z,8.83
2019-02-16T11:56:57.851Z,9.00
2019-02-16T11:59:28.814Z,9.90
2019-02-16T12:02:00.066Z,9.07
2019-02-16T12:04:30.978Z,8.33
2019-02-16T12:07:14.088Z,9.77
2019-02-16T12:10:00.122Z,9.90
2019-02-16T12:12:31.167Z,8.97
2019-02-16T12:15:02.089Z,10.20
2019-02-16T12:17:37.121Z,10.30
2019-02-16T12:20:13.271Z,9.37
2019-02-16T12:22:47.139Z,9.60
2019-02-16T12:25:33.027Z,10.93
2019-02-16T12:28:06.878Z,10.70
2019-02-16T12:30:54.049Z,10.00
2019-02-16T12:33:43.297Z,9.70
2019-02-16T12:36:21.911Z,10.77
2019-02-16T12:39:04.547Z,10.47
2019-02-16T12:41:34.066Z,10.30
2019-02-16T12:44:21.483Z,10.83
2019-02-16T12:46:55.242Z,10.40
2019-02-16T12:49:26.427Z,9.50
2019-02-16T12:51:57.336Z,11.40
2019-02-16T12:54:34.102Z,10.27
2019-02-16T12:57:05.037Z,10.20
2019-02-16T12:59:38.639Z,10.03
2019-02-16T13:02:09.568Z,10.40
2019-02-16T13:04:40.831Z,10.53
2019-02-16T13:07:20.940Z,11.30
2019-02-16T13:09:51.861Z,10.77
2019-02-16T13:12:25.735Z,11.07
2019-02-16T13:14:58.035Z,10.53
2019-02-16T13:17:45.680Z,10.10
2019-02-16T13:20:22.593Z,10.67
2019-02-16T13:23:02.282Z,10.97
2019-02-16T13:25:48.518Z,10.10
2019-02-16T13:28:36.037Z,9.93
2019-02-16T13:31:25.109Z,9.23
2019-02-16T13:33:56.037Z,9.93
2019-02-16T13:36:42.163Z,9.43
2019-02-16T13:39:22.320Z,9.27
2019-02-16T13:41:53.245Z,9.40
2019-02-16T13:44:30.450Z,8.90
2019-02-16T13:47:10.813Z,9.87
2019-02-16T13:49:47.693Z,9.23
2019-02-16T13:52:30.778Z,10.00
2019-02-16T13:55:04.406Z,9.77
2019-02-16T13:57:51.842Z,10.00
2019-02-16T14:00:26.062Z,10.40
2019-02-16T14:03:12.567Z,10.67
2019-02-16T14:05:46.425Z,9.20
2019-02-16T14:08:34.005Z,10.13
2019-02-16T14:11:17.069Z,10.40
2019-02-16T14:13:50.950Z,9.37
2019-02-16T14:16:30.982Z,10.53
2019-02-16T14:19:00.261Z,9.40
2019-02-16T14:21:29.541Z,8.30
2019-02-16T14:23:59.091Z,8.63
2019-02-16T14:26:28.375Z,7.97
2019-02-16T14:28:57.651Z,8.93
2019-02-16T14:31:28.698Z,9.20
2019-02-16T14:33:57.911Z,8.83
2019-02-16T14:36:27.546Z,9.50
2019-02-16T14:38:58.453Z,8.70
2019-02-16T14:41:27.733Z,8.67
2019-02-16T14:43:57.081Z,9.00
2019-02-16T14:46:26.381Z,8.80
2019-02-16T14:48:55.653Z,9.90
2019-02-16T14:51:24.949Z,9.10
2019-02-16T14:53:54.438Z,8.77
2019-02-16T14:56:23.738Z,8.80
2019-02-16T14:58:53.014Z,8.80
2019-02-16T15:01:22.289Z,7.90
2019-02-16T15:03:51.890Z,9.00
2019-02-16T15:06:21.165Z,7.60
2019-02-16T15:08:50.460Z,8.90
2019-02-16T15:11:19.736Z,9.00
2019-02-16T15:13:49.022Z,8.90
2019-02-16T15:16:18.299Z,8.87
2019-02-16T15:18:48.022Z,9.23
2019-02-16T15:21:17.610Z,9.20
2019-02-16T15:23:46.899Z,8.90
2019-02-16T15:26:16.169Z,9.67
2019-02-16T15:28:45.450Z,8.13
2019-02-16T15:31:15.035Z,8.60
2019-02-16T15:33:44.318Z,9.20
2019-02-16T15:36:23.460Z,8.90
2019-02-16T15:38:45.429Z,9.20
2019-02-16T15:41:14.697Z,8.90
2019-02-16T15:43:44.298Z,9.00
2019-02-16T15:46:13.569Z,8.83
2019-02-16T15:48:43.095Z,9.13
2019-02-16T15:51:12.706Z,8.50
2019-02-16T15:53:41.989Z,8.37
2019-02-16T15:56:11.505Z,8.73
2019-02-16T15:58:40.809Z,8.30
2019-02-16T16:01:10.178Z,8.63
2019-02-16T16:03:39.522Z,7.87
2019-02-16T16:06:08.797Z,9.33
2019-02-16T16:08:39.717Z,8.60
2019-02-16T16:11:10.710Z,8.33
2019-02-16T16:13:57.888Z,4.20
2019-02-16T16:16:47.166Z,10.07
2019-02-16T16:19:34.516Z,9.63
2019-02-16T16:22:11.382Z,9.50
2019-02-16T16:24:57.529Z,10.60
2019-02-16T16:27:28.441Z,8.63
2019-02-16T16:30:02.262Z,8.10
2019-02-16T16:32:51.190Z,10.50
2019-02-16T16:35:22.117Z,10.60
2019-02-16T16:38:10.077Z,12.80
2019-02-16T16:40:59.246Z,11.10
2019-02-16T16:43:33.123Z,11.40
2019-02-16T16:46:21.381Z,10.20
2019-02-16T16:48:58.046Z,10.13
2019-02-16T16:51:29.313Z,10.53
2019-02-16T16:54:00.245Z,11.83
2019-02-16T16:56:48.403Z,12.30
2019-02-16T16:59:24.762Z,14.53
2019-02-16T17:02:13.893Z,13.30
2019-02-16T17:04:50.697Z,13.67
2019-02-16T17:07:27.380Z,13.93
2019-02-16T17:10:13.537Z,15.90
2019-02-16T17:12:50.746Z,13.87
2019-02-16T17:15:33.982Z,15.13
2019-02-16T17:18:07.594Z,16.00
2019-02-16T17:20:47.310Z,16.33
2019-02-16T17:23:30.247Z,14.93
2019-02-16T17:26:04.278Z,14.40
2019-02-16T17:28:35.510Z,15.50
2019-02-16T17:31:09.153Z,13.93
2019-02-16T17:33:48.894Z,14.60
2019-02-16T17:36:34.772Z,13.90
2019-02-16T17:39:12.714Z,14.90
2019-02-16T17:41:43.638Z,15.50
2019-02-16T17:44:32.645Z,15.73
2019-02-16T17:47:06.277Z,12.23
2019-02-16T17:49:40.135Z,14.03
2019-02-16T17:52:13.747Z,14.90
2019-02-16T17:54:44.742Z,14.50
2019-02-16T17:57:24.926Z,14.80
2019-02-16T17:59:59.149Z,14.63
2019-02-16T18:02:47.126Z,13.80
2019-02-16T18:05:21.001Z,15.60
2019-02-16T18:07:54.640Z,15.27
2019-02-16T18:10:37.933Z,14.07
2019-02-16T18:13:09.206Z,15.17
2019-02-16T18:15:40.146Z,14.93
2019-02-16T18:18:20.083Z,16.37
2019-02-16T18:20:51.338Z,13.90
2019-02-16T18:23:28.294Z,13.77
2019-02-16T18:26:15.470Z,15.57
2019-02-16T18:29:02.932Z,17.47
2019-02-16T18:31:43.020Z,14.80
2019-02-16T18:34:14.263Z,15.17
2019-02-16T18:36:48.087Z,16.13
2019-02-16T18:39:25.303Z,15.77
2019-02-16T18:41:59.464Z,14.77
2019-02-16T18:44:33.690Z,14.83
2019-02-16T18:47:04.603Z,15.53
2019-02-16T18:49:48.380Z,14.70
2019-02-16T18:52:25.025Z,14.93
2019-02-16T18:55:12.478Z,14.67
2019-02-16T18:57:52.617Z,15.83
2019-02-16T19:00:23.563Z,15.60
2019-02-16T19:03:00.702Z,13.93
2019-02-16T19:05:37.518Z,13.70
2019-02-16T19:08:10.979Z,16.73
2019-02-16T19:10:45.042Z,13.37
2019-02-16T19:13:18.664Z,13.57
2019-02-16T19:16:06.137Z,12.87
2019-02-16T19:18:39.765Z,12.33
2019-02-16T19:21:13.237Z,12.90
2019-02-16T19:23:53.627Z,13.40
2019-02-16T19:26:24.865Z,13.07
2019-02-16T19:29:12.607Z,13.47
2019-02-16T19:31:43.616Z,13.60
2019-02-16T19:34:32.638Z,13.93
2019-02-16T19:37:09.659Z,14.53
2019-02-16T19:39:43.309Z,14.40
2019-02-16T19:42:17.636Z,14.20
2019-02-16T19:44:51.289Z,13.68
2019-02-16T19:47:25.438Z,15.30
2019-02-16T19:49:59.035Z,13.48
2019-02-16T19:52:33.245Z,16.00
2019-02-16T19:55:23.192Z,13.87
2019-02-16T19:57:56.705Z,14.17
2019-02-16T20:00:27.982Z,13.10
2019-02-16T20:03:07.765Z,13.60
2019-02-16T20:05:38.697Z,12.78
2019-02-16T20:08:18.778Z,14.00
2019-02-16T20:10:49.795Z,14.00
2019-02-16T20:13:23.663Z,13.68
2019-02-16T20:15:57.309Z,12.80
2019-02-16T20:18:28.241Z,12.80
2019-02-16T20:21:02.426Z,13.20
2019-02-16T20:23:33.351Z,14.53
2019-02-16T20:26:04.332Z,12.53
2019-02-16T20:28:35.270Z,12.75
2019-02-16T20:31:06.207Z,12.55
2019-02-16T20:33:37.130Z,12.80
2019-02-16T20:36:20.346Z,13.58
2019-02-16T20:38:51.279Z,13.25
2019-02-16T20:41:38.839Z,12.45
2019-02-16T20:44:12.429Z,13.43
2019-02-16T20:46:49.401Z,12.78
2019-02-16T20:49:32.619Z,14.25
2019-02-16T20:52:03.871Z,13.43
2019-02-16T20:54:46.807Z,13.40
2019-02-16T20:57:17.737Z,13.70
2019-02-16T21:00:00.856Z,15.55
2019-02-16T21:02:32.858Z,13.75
2019-02-16T21:05:06.868Z,14.43
2019-02-16T21:07:43.721Z,13.55
2019-02-16T21:10:17.583Z,13.03
2019-02-16T21:13:00.793Z,11.43
2019-02-16T21:15:31.728Z,13.68
2019-02-16T21:18:02.649Z,14.35
2019-02-16T21:20:45.513Z,12.75
2019-02-16T21:23:19.582Z,13.38
2019-02-16T21:26:07.021Z,12.93
2019-02-16T21:28:46.835Z,13.22
2019-02-16T21:31:23.656Z,12.25
2019-02-16T21:33:57.494Z,13.53
2019-02-16T21:36:30.179Z,13.50
2019-02-16T21:39:17.552Z,11.65
2019-02-16T21:42:06.948Z,13.05
2019-02-16T21:44:37.882Z,11.50
2019-02-16T21:47:26.689Z,11.60
2019-02-16T21:49:57.602Z,12.80
2019-02-16T21:52:31.290Z,12.73
2019-02-16T21:55:06.316Z,13.22
2019-02-16T21:57:39.675Z,13.60
2019-02-16T22:00:27.758Z,13.68
2019-02-16T22:02:58.686Z,12.20
2019-02-16T22:05:33.530Z,13.25
2019-02-16T22:08:14.041Z,12.50
2019-02-16T22:11:00.069Z,12.10
2019-02-16T22:13:29.357Z,12.70
2019-02-16T22:15:59.615Z,14.18
2019-02-16T22:18:29.262Z,12.90
2019-02-16T22:20:58.558Z,13.53
2019-02-16T22:23:29.100Z,12.18
2019-02-16T22:25:58.693Z,13.43
2019-02-16T22:28:31.046Z,13.22
2019-02-16T22:30:59.127Z,12.60
2019-02-16T22:33:28.417Z,13.53
2019-02-16T22:35:57.697Z,13.45
2019-02-16T22:38:26.986Z,13.00
2019-02-16T22:40:56.271Z,13.00
2019-02-16T22:43:25.590Z,13.20
2019-02-16T22:45:54.845Z,13.78
2019-02-16T22:48:25.221Z,12.82
2019-02-16T22:50:54.498Z,14.05
2019-02-16T22:53:23.804Z,13.13
2019-02-16T22:55:53.213Z,13.13
2019-02-16T22:58:28.766Z,12.07
2019-02-16T23:00:54.402Z,12.50
2019-02-16T23:03:24.019Z,12.55
2019-02-16T23:05:53.642Z,12.20
2019-02-16T23:08:23.088Z,13.90
2019-02-16T23:10:52.808Z,11.90
2019-02-16T23:13:22.116Z,13.55
2019-02-16T23:15:51.418Z,13.62
2019-02-16T23:18:20.719Z,12.40
2019-02-16T23:20:50.286Z,12.58
2019-02-16T23:23:19.574Z,12.70
2019-02-16T23:25:48.858Z,14.07
2019-02-16T23:28:18.150Z,13.40
2019-02-16T23:30:47.440Z,13.55
2019-02-16T23:33:16.730Z,13.72
2019-02-16T23:35:46.013Z,13.98
2019-02-16T23:38:15.301Z,12.95
2019-02-16T23:40:44.589Z,13.28
2019-02-16T23:43:14.193Z,13.38
2019-02-16T23:45:43.857Z,13.45
2019-02-16T23:48:13.145Z,13.08
2019-02-16T23:50:42.427Z,13.20
2019-02-16T23:53:11.731Z,13.72
2019-02-16T23:55:41.116Z,12.50
2019-02-16T23:58:10.373Z,14.38
